.
WxDataArchive / Data Records for 2013-08-03
2013-08-02 August 2013 2013-08-04

Data Records for Saturday, 03 August 2013

Time	Temp	Chill	HIndex	Humid	Dewpt	 Wind 	HiWind	WindDir	Rain 	Barom 
-----	----	-----	------	-----	-----	------	------	-------	-----	----- 
00:00	66.9	66.9	66.9	96	65.7	0	0	---	0.01	29.932 
00:05	66.9	66.9	66.9	96	65.7	0	1	292	0.00	29.932 
00:10	66.9	66.9	66.9	96	65.7	0	1	292	0.01	29.932 
00:15	66.9	66.9	66.9	96	65.7	0	1	292	0.00	29.934 
00:20	66.8	66.8	66.8	96	65.6	0	1	292	0.01	29.934 
00:25	66.8	66.8	66.8	96	65.6	0	1	292	0.00	29.934 
00:30	66.8	66.8	66.8	96	65.6	0	1	292	0.00	29.933 
00:35	66.8	66.8	66.8	96	65.6	0	0	---	0.00	29.933 
00:40	66.8	66.8	66.8	96	65.6	0	1	292	0.01	29.933 
00:45	66.8	66.8	66.8	96	65.6	0	0	---	0.00	29.928 
00:50	66.6	66.6	66.6	96	65.4	0	1	292	0.00	29.928 
00:55	66.6	66.6	66.6	96	65.4	0	0	---	0.01	29.928 
01:00	66.6	66.6	66.6	96	65.4	0	1	292	0.00	29.930 
01:05	66.4	66.4	66.4	96	65.2	0	1	292	0.00	29.930 
01:10	66.4	66.4	66.4	96	65.2	0	1	292	0.00	29.930 
01:15	66.3	66.3	66.3	96	65.1	0	1	292	0.00	29.935 
01:20	66.1	66.1	66.1	96	64.9	0	1	292	0.00	29.935 
01:25	66.0	66.0	66.0	96	64.8	0	1	292	0.00	29.935 
01:30	66.0	66.0	66.0	96	64.8	0	1	292	0.00	29.934 
01:35	65.8	65.8	65.8	97	64.9	0	1	292	0.00	29.934 
01:40	65.8	65.8	65.8	97	64.9	0	1	292	0.00	29.934 
01:45	65.6	65.6	65.6	97	64.7	0	0	---	0.00	29.932 
01:50	65.5	65.5	65.5	97	64.6	0	1	292	0.00	29.932 
01:55	65.3	65.3	65.3	96	64.1	0	0	---	0.00	29.932 
02:00	65.0	65.0	65.0	96	63.8	0	1	292	0.00	29.931 
02:05	64.8	64.8	64.8	96	63.6	0	1	292	0.00	29.931 
02:10	64.7	64.7	64.7	96	63.5	0	0	---	0.00	29.931 
02:15	64.7	64.7	64.7	97	63.8	0	0	---	0.00	29.930 
02:20	64.5	64.5	64.5	97	63.6	0	0	---	0.00	29.930 
02:25	64.5	64.5	64.5	97	63.6	0	0	---	0.00	29.930 
02:30	64.5	64.5	64.5	97	63.6	0	0	---	0.00	29.924 
02:35	64.3	64.3	64.3	97	63.4	0	0	---	0.00	29.924 
02:40	64.3	64.3	64.3	97	63.4	0	0	---	0.00	29.924 
02:45	64.3	64.3	64.3	97	63.4	0	0	---	0.00	29.929 
02:50	64.3	64.3	64.3	97	63.4	0	0	---	0.00	29.929 
02:55	64.3	64.3	64.3	97	63.4	0	0	---	0.00	29.929 
03:00	64.3	64.3	64.3	97	63.4	0	0	---	0.00	29.935 
03:05	64.3	64.3	64.3	97	63.4	0	0	---	0.00	29.935 
03:10	64.3	64.3	64.3	97	63.4	0	0	---	0.00	29.935 
03:15	64.2	64.2	64.2	97	63.3	0	0	---	0.00	29.921 
03:20	64.2	64.2	64.2	97	63.3	0	0	---	0.00	29.921 
03:25	64.2	64.2	64.2	97	63.3	0	0	---	0.00	29.921 
03:30	64.2	64.2	64.2	97	63.3	0	0	---	0.00	29.914 
03:35	64.0	64.0	64.0	97	63.1	0	0	---	0.00	29.914 
03:40	64.0	64.0	64.0	97	63.1	0	0	---	0.00	29.914 
03:45	64.0	64.0	64.0	97	63.1	0	0	---	0.00	29.920 
03:50	64.0	64.0	64.0	97	63.1	0	0	---	0.00	29.920 
03:55	63.9	63.9	63.9	97	63.0	0	0	---	0.00	29.920 
04:00	63.9	63.9	63.9	97	63.0	0	0	---	0.00	29.910 
04:05	63.9	63.9	63.9	97	63.0	0	0	---	0.00	29.910 
04:10	63.7	63.7	63.7	97	62.8	0	0	---	0.00	29.910 
04:15	63.7	63.7	63.7	97	62.8	0	0	---	0.00	29.917 
04:20	63.7	63.7	63.7	97	62.8	0	0	---	0.00	29.917 
04:25	63.7	63.7	63.7	97	62.8	0	0	---	0.00	29.917 
04:30	63.7	63.7	63.7	97	62.8	0	0	---	0.00	29.924 
04:35	63.9	63.9	63.9	97	63.0	0	0	---	0.00	29.924 
04:40	64.0	64.0	64.0	97	63.1	0	0	---	0.00	29.924 
04:45	64.0	64.0	64.0	97	63.1	0	0	---	0.00	29.924 
04:50	64.0	64.0	64.0	97	63.1	0	0	---	0.00	29.924 
04:55	64.0	64.0	64.0	97	63.1	0	0	---	0.00	29.924 
05:00	63.9	63.9	63.9	97	63.0	0	0	---	0.00	29.933 
05:05	63.9	63.9	63.9	97	63.0	0	0	---	0.00	29.933 
05:10	63.9	63.9	63.9	97	63.0	0	0	---	0.00	29.933 
05:15	63.7	63.7	63.7	97	62.8	0	0	---	0.00	29.938 
05:20	63.7	63.7	63.7	97	62.8	0	0	---	0.00	29.938 
05:25	63.7	63.7	63.7	97	62.8	0	0	---	0.00	29.938 
05:30	63.7	63.7	63.7	97	62.8	0	0	---	0.00	29.944 
05:35	63.5	63.5	63.5	97	62.6	0	0	---	0.00	29.944 
05:40	63.5	63.5	63.5	97	62.6	0	0	---	0.00	29.944 
05:45	63.5	63.5	63.5	97	62.6	0	0	---	0.00	29.946 
05:50	63.5	63.5	63.5	97	62.6	0	0	---	0.00	29.946 
05:55	63.5	63.5	63.5	97	62.6	0	0	---	0.00	29.946 
06:00	63.5	63.5	63.5	97	62.6	0	0	---	0.00	29.950 
06:05	63.5	63.5	63.5	97	62.6	0	0	---	0.00	29.950 
06:10	63.4	63.4	63.4	97	62.5	0	0	---	0.00	29.950 
06:15	63.4	63.4	63.4	97	62.5	0	0	---	0.00	29.951 
06:20	63.4	63.4	63.4	97	62.5	0	0	---	0.00	29.951 
06:25	63.4	63.4	63.4	97	62.5	0	0	---	0.00	29.951 
06:30	63.2	63.2	63.2	97	62.3	0	0	---	0.00	29.949 
06:35	63.2	63.2	63.2	97	62.3	0	0	---	0.00	29.949 
06:40	63.1	63.1	63.1	97	62.2	0	0	---	0.00	29.949 
06:45	63.1	63.1	63.1	97	62.2	0	0	---	0.00	29.947 
06:50	62.9	62.9	62.9	97	62.0	0	0	---	0.00	29.947 
06:55	62.7	62.7	62.7	97	61.8	0	0	---	0.00	29.947 
07:00	62.6	62.6	62.6	97	61.7	0	0	---	0.00	29.950 
07:05	62.6	62.6	62.6	97	61.7	0	0	---	0.00	29.950 
07:10	62.4	62.4	62.4	97	61.5	0	0	---	0.00	29.950 
07:15	62.4	62.4	62.4	97	61.5	0	0	---	0.00	29.960 
07:20	62.4	62.4	62.4	97	61.5	0	0	---	0.00	29.960 
07:25	62.4	62.4	62.4	97	61.5	0	0	---	0.00	29.960 
07:30	62.4	62.4	62.4	97	61.5	0	0	---	0.00	29.963 
07:35	62.6	62.6	62.6	97	61.7	0	0	---	0.00	29.963 
07:40	62.7	62.7	62.7	97	61.8	0	0	---	0.00	29.963 
07:45	63.1	63.1	63.1	97	62.2	0	0	---	0.00	29.964 
07:50	63.4	63.4	63.4	97	62.5	0	0	---	0.00	29.964 
07:55	63.5	63.5	63.5	97	62.6	0	0	---	0.00	29.964 
08:00	63.9	63.9	63.9	97	63.0	0	0	---	0.00	29.966 
08:05	64.0	64.0	64.0	97	63.1	0	0	---	0.00	29.966 
08:10	64.3	64.3	64.3	97	63.4	0	0	---	0.00	29.966 
08:15	64.5	64.5	64.5	97	63.6	0	0	---	0.00	29.971 
08:20	64.5	64.5	64.5	97	63.6	0	0	---	0.00	29.971 
08:25	64.7	64.7	64.7	97	63.8	0	0	---	0.00	29.971 
08:30	64.7	64.7	64.7	97	63.8	0	0	---	0.00	29.973 
08:35	64.7	64.7	64.7	97	63.8	0	0	---	0.00	29.973 
08:40	64.7	64.7	64.7	97	63.8	0	0	---	0.00	29.973 
08:45	64.8	64.8	64.8	97	63.9	0	0	---	0.00	29.976 
08:50	64.8	64.8	64.8	97	63.9	0	0	---	0.00	29.976 
08:55	65.2	65.2	65.2	97	64.3	0	0	---	0.00	29.976 
09:00	65.3	65.3	65.3	97	64.4	0	0	---	0.00	29.978 
09:05	65.5	65.5	65.5	97	64.6	0	0	---	0.00	29.978 
09:10	65.5	65.5	65.5	97	64.6	0	0	---	0.00	29.978 
09:15	65.6	65.6	65.6	97	64.7	0	0	---	0.00	29.975 
09:20	65.8	65.8	65.8	97	64.9	0	0	---	0.00	29.975 
09:25	66.4	66.4	66.4	97	65.5	0	0	---	0.00	29.975 
09:30	67.3	67.3	67.3	97	66.4	0	0	---	0.00	29.975 
09:35	67.6	67.6	67.6	97	66.7	0	0	---	0.00	29.975 
09:40	67.6	67.6	67.6	97	66.7	0	0	---	0.00	29.975 
09:45	67.4	67.4	67.4	96	66.2	0	0	---	0.00	29.976 
09:50	66.8	66.8	66.8	96	65.6	0	0	---	0.00	29.976 
09:55	66.8	66.8	66.8	96	65.6	0	0	---	0.00	29.976 
10:00	67.1	67.1	67.1	96	65.9	0	0	---	0.00	29.979 
10:05	67.3	67.3	67.3	96	66.1	0	0	---	0.00	29.979 
10:10	67.3	67.3	67.3	96	66.1	0	0	---	0.00	29.979 
10:15	67.4	67.4	67.4	95	65.9	0	0	---	0.00	29.976 
10:20	67.9	67.9	67.9	95	66.4	0	0	---	0.00	29.976 
10:25	67.8	67.8	67.8	94	66.0	0	0	---	0.00	29.976 
10:30	67.8	67.8	67.8	94	66.0	0	0	---	0.00	29.984 
10:35	67.9	67.9	67.9	93	65.8	0	0	---	0.00	29.984 
10:40	67.9	67.9	67.9	92	65.5	0	0	---	0.01	29.984 
10:45	68.8	68.8	68.8	92	66.4	0	0	---	0.00	29.981 
10:50	68.6	68.6	68.6	89	65.2	0	0	---	0.00	29.981 
10:55	68.8	68.8	68.8	88	65.1	0	0	---	0.00	29.981 
11:00	69.1	69.1	69.1	87	65.1	0	0	---	0.00	29.981 
11:05	70.1	70.1	70.1	86	65.7	0	0	---	0.00	29.981 
11:10	70.9	70.9	70.9	81	64.8	0	0	---	0.00	29.981 
11:15	72.1	72.1	72.1	79	65.2	0	0	---	0.00	29.984 
11:20	72.1	72.1	72.1	77	64.5	0	0	---	0.00	29.984 
11:25	72.3	72.3	72.3	79	65.4	0	0	---	0.00	29.984 
11:30	73.0	73.0	73.0	76	65.0	0	0	---	0.00	29.984 
11:35	72.7	72.7	72.7	74	63.9	0	0	---	0.00	29.984 
11:40	73.3	73.3	73.3	76	65.3	0	0	---	0.00	29.984 
11:45	73.5	73.5	73.5	75	65.1	0	0	---	0.00	29.983 
11:50	73.7	73.7	73.7	73	64.5	0	0	---	0.00	29.983 
11:55	74.0	74.0	74.0	72	64.4	0	0	---	0.00	29.983 
12:00	74.6	74.6	74.6	70	64.2	0	0	---	0.00	29.981 
12:05	75.1	75.1	76.8	70	64.6	0	0	---	0.00	29.981 
12:10	75.3	75.3	77.1	68	64.0	0	0	---	0.00	29.981 
12:15	75.8	75.8	77.7	65	63.2	0	0	---	0.00	29.983 
12:20	76.3	76.3	78.1	65	63.6	0	0	---	0.00	29.983 
12:25	76.3	76.3	78.2	58	60.4	0	0	---	0.00	29.983 
12:30	76.8	76.8	78.6	60	61.8	0	0	---	0.00	29.982 
12:35	77.4	77.4	79.2	65	64.7	0	0	---	0.00	29.982 
12:40	77.6	77.6	79.4	62	63.5	0	0	---	0.00	29.982 
12:45	77.2	77.2	79.0	63	63.6	0	0	---	0.00	29.982 
12:50	77.2	77.2	79.0	61	62.7	0	0	---	0.00	29.982 
12:55	77.4	77.4	79.1	58	61.4	0	0	---	0.00	29.982 
13:00	77.4	77.4	79.1	58	61.4	0	0	---	0.00	29.981 
13:05	77.4	77.4	79.1	59	61.9	0	0	---	0.00	29.981 
13:10	77.7	77.7	79.3	58	61.7	0	0	---	0.00	29.981 
13:15	77.9	77.9	79.5	58	61.9	0	0	---	0.00	29.984 
13:20	77.4	77.4	79.1	59	61.9	0	0	---	0.00	29.984 
13:25	77.4	77.4	79.1	59	61.9	0	0	---	0.00	29.984 
13:30	77.0	77.0	78.8	58	61.1	0	0	---	0.00	29.987 
13:35	76.5	76.5	78.4	57	60.1	0	0	---	0.00	29.987 
13:40	76.7	76.7	78.5	58	60.8	0	0	---	0.00	29.987 
13:45	77.4	77.4	79.1	57	61.0	0	0	---	0.00	29.987 
13:50	77.4	77.4	79.0	56	60.5	0	0	---	0.00	29.987 
13:55	77.4	77.4	79.0	55	59.9	0	0	---	0.00	29.987 
14:00	77.0	77.0	78.7	53	58.5	0	0	---	0.00	29.986 
14:05	76.7	76.7	78.5	55	59.3	0	0	---	0.00	29.986 
14:10	76.5	76.5	78.4	58	60.6	0	0	---	0.00	29.986 
14:15	76.0	76.0	78.1	57	59.6	0	0	---	0.00	29.988 
14:20	76.0	76.0	78.1	57	59.6	0	0	---	0.00	29.988 
14:25	76.3	76.3	78.2	53	57.9	0	0	---	0.00	29.988 
14:30	77.4	77.4	79.0	55	59.9	0	0	---	0.00	29.987 
14:35	77.9	77.9	79.3	52	58.8	0	0	---	0.00	29.987 
14:40	78.6	78.6	79.8	53	60.0	0	0	---	0.00	29.987 
14:45	79.0	79.0	80.0	50	58.7	0	0	---	0.00	29.985 
14:50	79.2	79.2	79.8	45	56.0	0	0	---	0.00	29.985 
14:55	79.2	79.2	79.8	45	56.0	0	0	---	0.00	29.985 
15:00	78.3	78.3	79.4	49	57.5	0	0	---	0.00	29.986 
15:05	77.2	77.2	78.7	50	57.1	0	0	---	0.00	29.986 
15:10	76.8	76.8	78.5	52	57.8	0	0	---	0.00	29.986 
15:15	77.2	77.2	78.8	54	59.2	0	0	---	0.00	29.989 
15:20	77.9	77.9	79.2	50	57.7	0	0	---	0.00	29.989 
15:25	78.6	78.6	79.5	48	57.2	0	0	---	0.00	29.989 
15:30	78.8	78.8	79.7	48	57.4	0	0	---	0.00	29.984 
15:35	78.5	78.5	79.6	50	58.3	0	0	---	0.00	29.984 
15:40	77.9	77.9	79.2	50	57.7	0	0	---	0.00	29.984 
15:45	77.6	77.6	79.1	54	59.6	0	0	---	0.00	29.980 
15:50	77.7	77.7	79.0	50	57.6	0	0	---	0.00	29.980 
15:55	78.3	78.3	79.3	48	57.0	0	0	---	0.00	29.980 
16:00	78.1	78.1	79.2	47	56.2	0	0	---	0.00	29.981 
16:05	78.5	78.5	79.7	52	59.4	0	0	---	0.00	29.981 
16:10	79.2	79.2	79.7	44	55.4	1	5	338	0.00	29.981 
16:15	78.6	78.6	79.5	48	57.2	1	5	338	0.00	29.980 
16:20	78.3	78.3	79.2	45	55.2	1	4	315	0.00	29.980 
16:25	77.9	77.9	79.0	46	55.4	2	5	315	0.00	29.980 
16:30	77.7	77.7	79.0	50	57.6	1	4	315	0.00	29.972 
16:35	78.1	78.1	79.5	53	59.6	0	2	315	0.00	29.972 
16:40	78.6	78.6	79.4	46	56.1	1	4	315	0.00	29.972 
16:45	79.0	79.0	79.7	46	56.4	2	4	315	0.00	29.973 
16:50	79.2	79.2	80.0	48	57.8	1	3	315	0.00	29.973 
16:55	79.6	79.6	80.0	44	55.7	2	4	338	0.00	29.973 
17:00	79.4	79.4	79.8	44	55.6	2	5	292	0.00	29.973 
17:05	79.2	79.2	79.6	43	54.7	1	4	292	0.00	29.973 
17:10	79.8	79.8	80.1	44	55.9	1	3	292	0.00	29.973 
17:15	79.2	79.2	79.8	45	56.0	2	5	292	0.00	29.979 
17:20	78.1	78.1	79.1	46	55.6	1	3	292	0.00	29.979 
17:25	77.9	77.9	79.1	48	56.6	1	4	292	0.00	29.979 
17:30	78.3	78.3	79.3	47	56.4	2	5	315	0.00	29.977 
17:35	78.5	78.5	79.4	47	56.6	2	5	338	0.00	29.977 
17:40	78.1	78.1	79.0	45	55.0	1	4	315	0.00	29.977 
17:45	77.7	77.7	78.9	46	55.2	1	4	315	0.00	29.985 
17:50	76.8	76.8	78.4	47	55.0	2	5	315	0.00	29.985 
17:55	76.5	76.5	78.3	50	56.5	1	4	315	0.00	29.985 
18:00	76.7	76.7	78.4	49	56.1	1	3	315	0.00	29.987 
18:05	76.5	76.5	78.3	50	56.5	1	3	315	0.00	29.987 
18:10	76.5	76.5	78.3	51	57.0	1	3	315	0.00	29.987 
18:15	76.1	76.1	78.1	50	56.1	1	2	315	0.00	29.988 
18:20	76.3	76.3	78.2	50	56.3	1	3	315	0.00	29.988 
18:25	76.5	76.5	78.3	51	57.0	1	4	315	0.00	29.988 
18:30	76.5	76.5	78.3	49	55.9	1	4	315	0.00	29.988 
18:35	76.1	76.1	78.1	49	55.5	1	3	315	0.00	29.988 
18:40	76.0	76.0	78.1	50	56.0	1	2	315	0.00	29.988 
18:45	75.8	75.8	78.0	50	55.8	1	4	315	0.00	29.990 
18:50	75.8	75.8	78.0	49	55.3	1	5	338	0.00	29.990 
18:55	75.3	75.3	77.7	50	55.4	1	3	338	0.00	29.990 
19:00	74.9	74.9	74.9	51	55.5	1	2	338	0.00	29.996 
19:05	74.6	74.6	74.6	53	56.3	0	1	338	0.00	29.996 
19:10	74.2	74.2	74.2	52	55.4	0	1	338	0.00	29.996 
19:15	73.9	73.9	73.9	52	55.1	0	1	338	0.00	29.999 
19:20	73.7	73.7	73.7	51	54.4	0	2	338	0.00	29.999 
19:25	73.7	73.7	73.7	51	54.4	1	3	338	0.00	29.999 
19:30	73.7	73.7	73.7	50	53.9	0	2	338	0.00	29.999 
19:35	73.9	73.9	73.9	45	51.2	2	5	292	0.00	29.999 
19:40	74.2	74.2	74.2	46	52.1	1	2	292	0.00	29.999 
19:45	74.4	74.4	74.4	45	51.7	1	4	338	0.00	30.003 
19:50	74.4	74.4	74.4	45	51.7	1	3	338	0.00	30.003 
19:55	74.2	74.2	74.2	46	52.1	0	2	338	0.00	30.003 
20:00	74.0	74.0	74.0	45	51.3	1	3	338	0.00	30.005 
20:05	73.9	73.9	73.9	45	51.2	1	5	292	0.00	30.005 
20:10	73.5	73.5	73.5	45	50.8	1	2	315	0.00	30.005 
20:15	73.2	73.2	73.2	47	51.7	0	2	315	0.00	30.005 
20:20	73.0	73.0	73.0	47	51.6	1	2	315	0.00	30.005 
20:25	72.7	72.7	72.7	48	51.9	0	1	315	0.00	30.005 
20:30	72.3	72.3	72.3	49	52.1	0	2	315	0.00	30.008 
20:35	71.8	71.8	71.8	48	51.0	1	2	315	0.00	30.008 
20:40	71.6	71.6	71.6	48	50.9	1	2	315	0.00	30.008 
20:45	71.3	71.3	71.3	48	50.6	0	1	315	0.00	30.007 
20:50	70.9	70.9	70.9	50	51.3	0	0	---	0.00	30.007 
20:55	70.4	70.4	70.4	50	50.9	0	1	315	0.00	30.007 
21:00	70.1	70.1	70.1	50	50.6	0	1	315	0.00	30.009 
21:05	69.8	69.8	69.8	51	50.8	0	0	---	0.00	30.009 
21:10	69.4	69.4	69.4	52	51.0	0	0	---	0.00	30.009 
21:15	69.1	69.1	69.1	53	51.2	0	0	---	0.00	30.008 
21:20	68.6	68.6	68.6	53	50.8	0	1	315	0.00	30.008 
21:25	68.4	68.4	68.4	53	50.6	0	1	315	0.00	30.008 
21:30	68.3	68.3	68.3	54	51.0	0	1	315	0.00	30.016 
21:35	68.1	68.1	68.1	54	50.8	0	1	315	0.00	30.016 
21:40	67.9	67.9	67.9	55	51.1	0	1	315	0.00	30.016 
21:45	67.6	67.6	67.6	55	50.8	0	1	315	0.00	30.022 
21:50	67.4	67.4	67.4	56	51.1	0	2	315	0.00	30.022 
21:55	67.3	67.3	67.3	56	51.1	0	2	315	0.00	30.022 
22:00	67.1	67.1	67.1	57	51.3	0	2	315	0.00	30.025 
22:05	66.8	66.8	66.8	58	51.5	0	1	315	0.00	30.025 
22:10	66.6	66.6	66.6	58	51.4	0	2	315	0.00	30.025 
22:15	66.3	66.3	66.3	59	51.5	0	1	315	0.00	30.029 
22:20	66.0	66.0	66.0	59	51.3	0	1	315	0.00	30.029 
22:25	65.8	65.8	65.8	60	51.5	0	1	315	0.00	30.029 
22:30	65.6	65.6	65.6	61	51.8	0	1	315	0.00	30.037 
22:35	65.5	65.5	65.5	61	51.7	0	0	---	0.00	30.037 
22:40	65.2	65.2	65.2	62	51.8	0	0	---	0.00	30.037 
22:45	65.0	65.0	65.0	62	51.7	0	0	---	0.00	30.037 
22:50	64.7	64.7	64.7	63	51.8	0	0	---	0.00	30.037 
22:55	64.5	64.5	64.5	64	52.0	0	0	---	0.00	30.037 
23:00	64.2	64.2	64.2	65	52.2	0	0	---	0.00	30.041 
23:05	64.0	64.0	64.0	65	52.0	0	0	---	0.00	30.041 
23:10	63.9	63.9	63.9	65	51.9	0	0	---	0.00	30.041 
23:15	63.7	63.7	63.7	66	52.1	0	0	---	0.00	30.037 
23:20	63.5	63.5	63.5	67	52.3	0	0	---	0.00	30.037 
23:25	63.4	63.4	63.4	67	52.2	0	0	---	0.00	30.037 
23:30	63.2	63.2	63.2	68	52.5	0	0	---	0.00	30.038 
23:35	63.1	63.1	63.1	68	52.4	0	0	---	0.00	30.038 
23:40	62.9	62.9	62.9	68	52.2	0	0	---	0.00	30.038 
23:45	62.7	62.7	62.7	68	52.0	0	0	---	0.00	30.036 
23:50	62.6	62.6	62.6	69	52.3	0	0	---	0.00	30.036 
23:55	62.3	62.3	62.3	69	52.0	0	0	---	0.00	30.036 

CoCoRaHS
IN-AL-39
A2 Web Hosting
Creative Commons License
GoDaddy
search engine by freefind advanced

loaded 2018-11-19 10:49:04 • last modified 2010-11-18 10:43:29
Privacy PolicyDisclaimer
• wx.awcolley.com is powered by PmWiki v.2002016 •
• all content (unless otherwise noted) © 2018 A W Colley